Time;durP1;ratioP1;P1;durP2;ratioP2;P2;SDS_P1;SDS_P2;PMS_P1;PMS_P2;Temp;Humidity;BMP_temperature;BMP_pressure;BME280_temperature;BME280_humidity;BME280_pressure;Samples;Min_cycle;Max_cycle;Signal;HPM_P1;HPM_P2
2022/05/10 00:00:54;;;;;;;21.65;19.58;;;;;;;10.45;100.00;99927.38;2034040;29;20498;-71
2022/05/10 00:01:57;;;;;;;22.58;20.42;;;;;;;10.48;100.00;99934.81;2034094;29;20219;-71
2022/05/10 00:03:03;;;;;;;26.45;20.77;;;;;;;10.48;100.00;99926.81;2041381;29;20725;-71
2022/05/10 00:04:06;;;;;;;29.05;21.02;;;;;;;10.49;100.00;99931.06;2041331;29;20242;-71
2022/05/10 00:05:08;;;;;;;22.38;20.23;;;;;;;10.48;100.00;99924.13;2034356;29;20271;-71
2022/05/10 00:06:12;;;;;;;27.15;20.83;;;;;;;10.52;100.00;99921.75;2032956;29;20677;-71
2022/05/10 00:07:14;;;;;;;21.88;19.65;;;;;;;10.49;100.00;99933.75;2033867;29;20562;-71
2022/05/10 00:08:18;;;;;;;22.88;20.58;;;;;;;10.53;100.00;99923.34;2033381;29;20299;-71
2022/05/10 00:09:21;;;;;;;24.73;20.63;;;;;;;10.53;100.00;99923.34;2025364;29;20215;-72
2022/05/10 00:10:24;;;;;;;24.10;21.20;;;;;;;10.51;100.00;99928.91;2026064;29;20272;-71
2022/05/10 00:11:27;;;;;;;22.65;20.17;;;;;;;10.48;100.00;99927.59;2033579;29;20289;-71
2022/05/10 00:12:31;;;;;;;21.95;19.63;;;;;;;10.42;100.00;99922.56;2034015;29;20195;-71
2022/05/10 00:13:32;;;;;;;21.42;19.33;;;;;;;10.50;100.00;99924.66;2033056;29;20218;-71
2022/05/10 00:14:34;;;;;;;21.93;19.67;;;;;;;10.51;100.00;99931.59;2033717;29;20191;-71
2022/05/10 00:15:35;;;;;;;23.98;19.77;;;;;;;10.55;100.00;99935.31;2034255;29;20231;-71
2022/05/10 00:16:41;;;;;;;22.42;18.58;;;;;;;10.60;100.00;99935.31;2032897;29;20199;-71
2022/05/10 00:17:42;;;;;;;21.45;19.42;;;;;;;10.64;100.00;99938.22;2041584;29;20266;-71
2022/05/10 00:18:44;;;;;;;22.00;19.38;;;;;;;10.63;100.00;99933.94;2040925;29;20227;-71
2022/05/10 00:19:45;;;;;;;20.38;18.23;;;;;;;10.64;100.00;99939.00;2033535;29;20204;-71
2022/05/10 00:20:47;;;;;;;21.57;19.40;;;;;;;10.68;100.00;99937.38;2034054;29;20202;-72
2022/05/10 00:21:49;;;;;;;21.02;18.95;;;;;;;10.66;100.00;99934.19;2033742;29;20234;-71
2022/05/10 00:22:53;;;;;;;22.15;19.92;;;;;;;10.73;100.00;99937.38;2041273;29;20202;-71
2022/05/10 00:23:55;;;;;;;22.45;19.45;;;;;;;10.60;100.00;99929.97;2041084;29;20378;-71
2022/05/10 00:24:57;;;;;;;23.38;19.58;;;;;;;10.58;100.00;99926.75;2041356;29;20202;-71
2022/05/10 00:25:59;;;;;;;22.50;20.25;;;;;;;10.56;100.00;99933.44;2041267;29;20620;-71
2022/05/10 00:27:03;;;;;;;22.42;19.35;;;;;;;10.50;100.00;99935.31;2033985;29;20192;-71
2022/05/10 00:28:04;;;;;;;25.40;19.25;;;;;;;10.45;100.00;99925.50;2034022;29;20195;-71
2022/05/10 00:29:06;;;;;;;23.23;19.48;;;;;;;10.43;100.00;99926.84;2033348;29;20250;-71
2022/05/10 00:30:08;;;;;;;22.08;19.10;;;;;;;10.48;100.00;99935.59;2033428;29;20734;-71
2022/05/10 00:31:12;;;;;;;22.27;19.88;;;;;;;10.54;100.00;99938.28;2041201;29;20620;-71
2022/05/10 00:32:13;;;;;;;21.27;19.08;;;;;;;10.59;100.00;99940.91;2041211;29;20674;-71
2022/05/10 00:33:19;;;;;;;20.63;18.60;;;;;;;10.54;100.00;99936.41;2041166;29;20223;-71
2022/05/10 00:34:20;;;;;;;22.48;19.40;;;;;;;10.49;100.00;99928.41;2033203;29;20652;-71
2022/05/10 00:35:24;;;;;;;21.87;19.57;;;;;;;10.51;100.00;99930.78;2025192;29;20219;-71
2022/05/10 00:36:25;;;;;;;21.35;19.25;;;;;;;10.46;100.00;99931.63;2033338;29;20238;-71
2022/05/10 00:37:31;;;;;;;20.53;18.53;;;;;;;10.56;100.00;99942.25;2033310;29;20206;-71
2022/05/10 00:38:33;;;;;;;22.45;19.38;;;;;;;10.51;100.00;99931.59;2033533;29;20414;-72
2022/05/10 00:39:35;;;;;;;21.65;19.35;;;;;;;10.47;100.00;99933.22;2034012;29;20192;-71
2022/05/10 00:40:38;;;;;;;21.48;19.45;;;;;;;10.40;100.00;99924.72;2033992;29;20251;-71
2022/05/10 00:41:51;;;;;;;22.35;19.50;;;;;;;10.41;100.00;99927.09;2033973;29;20248;-72
2022/05/10 00:42:58;;;;;;;20.08;18.17;;;;;;;10.43;100.00;99930.31;2034237;29;20176;-71
2022/05/10 00:44:08;;;;;;;20.17;18.35;;;;;;;10.39;100.00;99928.44;2034610;29;20204;-71
2022/05/10 00:45:15;;;;;;;20.02;18.13;;;;;;;10.27;100.00;99919.97;2035260;29;20627;-71
2022/05/10 00:46:21;;;;;;;20.83;19.08;;;;;;;10.22;100.00;99917.28;2035577;29;20214;-72
2022/05/10 00:47:24;;;;;;;21.73;19.67;;;;;;;10.14;100.00;99910.63;2035704;29;20510;-71
2022/05/10 00:48:36;;;;;;;21.17;19.30;;;;;;;10.06;100.00;99911.19;2042303;29;20195;-71
2022/05/10 00:49:41;;;;;;;20.40;18.60;;;;;;;10.00;100.00;99906.97;2041689;29;20525;-71
2022/05/10 00:50:48;;;;;;;20.88;18.95;;;;;;;9.99;100.00;99908.84;2042482;29;20294;-71
2022/05/10 00:51:56;;;;;;;19.88;18.08;;;;;;;9.94;100.00;99903.50;2041824;29;20226;-71
2022/05/10 00:53:00;;;;;;;20.05;18.20;;;;;;;9.91;100.00;99904.84;2035570;29;20180;-71
2022/05/10 00:54:05;;;;;;;21.08;18.98;;;;;;;9.88;100.00;99901.91;2035434;29;20188;-71
2022/05/10 00:55:11;;;;;;;19.50;17.80;;;;;;;9.84;100.00;99906.19;2034464;29;20564;-71
2022/05/10 00:56:19;;;;;;;20.45;18.52;;;;;;;9.79;100.00;99904.31;2035037;29;20180;-71
2022/05/10 00:57:29;;;;;;;21.08;19.15;;;;;;;9.76;100.00;99909.41;2035590;29;20188;-71
2022/05/10 00:58:39;;;;;;;20.73;18.63;;;;;;;9.73;100.00;99904.59;2035737;29;20172;-71
2022/05/10 00:59:52;;;;;;;19.88;18.05;;;;;;;9.70;100.00;99910.47;2035702;29;20613;-71
2022/05/10 01:00:54;;;;;;;19.25;17.60;;;;;;;9.64;100.00;99901.69;2035545;29;20184;-71
2022/05/10 01:02:01;;;;;;;20.42;18.33;;;;;;;9.62;100.00;99909.16;2034261;29;20218;-71
2022/05/10 01:03:08;;;;;;;30.85;18.55;;;;;;;9.57;100.00;99901.97;2035075;29;20277;-71
2022/05/10 01:04:15;;;;;;;20.77;18.77;;;;;;;9.54;100.00;99902.50;2042300;29;20575;-71
2022/05/10 01:05:20;;;;;;;19.50;17.80;;;;;;;9.51;100.00;99910.25;2042062;29;20175;-71
2022/05/10 01:06:27;;;;;;;19.98;18.10;;;;;;;9.47;100.00;99899.34;2035066;29;20564;-71
2022/05/10 01:07:33;;;;;;;19.83;18.17;;;;;;;9.45;100.00;99897.97;2035462;29;20247;-71
2022/05/10 01:08:38;;;;;;;20.00;18.15;;;;;;;9.43;100.00;99903.56;2035596;29;20179;-71
2022/05/10 01:09:45;;;;;;;20.70;18.80;;;;;;;9.39;100.00;99897.19;2035378;29;20215;-71
2022/05/10 01:10:51;;;;;;;21.58;19.13;;;;;;;9.38;100.00;99898.25;2035413;29;20187;-71
2022/05/10 01:11:58;;;;;;;20.50;18.80;;;;;;;9.35;100.00;99893.47;2042165;29;20203;-71
2022/05/10 01:13:18;;;;;;;20.77;18.80;;;;;;;9.32;100.00;99894.00;2042242;29;20175;-71
2022/05/10 01:14:25;;;;;;;20.52;18.52;;;;;;;9.30;100.00;99885.50;2035472;29;20263;-71
2022/05/10 01:15:27;;;;;;;20.80;18.80;;;;;;;9.28;100.00;99892.91;2035431;29;20619;-71
2022/05/10 01:16:30;;;;;;;20.20;18.60;;;;;;;9.26;100.00;99895.84;2035282;29;20192;-71
2022/05/10 01:17:31;;;;;;;20.73;18.55;;;;;;;9.25;100.00;99888.13;2035282;29;20278;-71
2022/05/10 01:18:33;;;;;;;20.92;18.92;;;;;;;9.22;100.00;99891.34;2034751;29;20247;-71
2022/05/10 01:19:36;;;;;;;20.10;18.30;;;;;;;9.21;100.00;99885.22;2034826;29;20563;-71
2022/05/10 01:20:41;;;;;;;20.42;18.50;;;;;;;9.21;100.00;99895.03;2035288;29;20196;-72
2022/05/10 01:21:52;;;;;;;19.77;18.02;;;;;;;9.20;100.00;99885.47;2035288;29;20238;-71
2022/05/10 01:22:59;;;;;;;20.38;18.38;;;;;;;9.19;100.00;99887.31;2035244;29;20262;-72
2022/05/10 01:24:21;;;;;;;20.92;18.65;;;;;;;9.18;100.00;99882.28;2035360;29;20698;-72
2022/05/10 01:25:38;;;;;;;20.63;18.88;;;;;;;9.15;100.00;99888.16;2029451;29;20218;-72
2022/05/10 01:26:51;;;;;;;19.75;18.02;;;;;;;9.11;100.00;99889.72;2042463;29;20191;-71
2022/05/10 01:28:13;;;;;;;20.00;18.35;;;;;;;9.09;100.00;99889.19;2050358;29;20202;-71
2022/05/10 01:29:18;;;;;;;20.90;18.10;;;;;;;9.06;100.00;99882.53;2045440;29;20212;-71
2022/05/10 01:30:25;;;;;;;19.50;17.90;;;;;;;9.11;100.00;99874.56;2042389;29;20199;-71
2022/05/10 01:31:30;;;;;;;20.63;18.35;;;;;;;9.10;100.00;99877.47;2041937;29;20171;-71
2022/05/10 01:33:58;;;;;;;19.70;18.08;;;;;;;9.03;100.00;99881.22;2043053;29;20176;-71
2022/05/10 01:35:05;;;;;;;19.52;17.70;;;;;;;9.04;100.00;99882.81;2043120;29;20179;-71
2022/05/10 01:36:13;;;;;;;19.77;18.02;;;;;;;9.07;100.00;99887.59;2042422;29;20187;-71
2022/05/10 01:37:18;;;;;;;20.48;18.58;;;;;;;9.06;100.00;99878.03;2043194;29;20576;-71
2022/05/10 01:38:27;;;;;;;19.60;17.85;;;;;;;9.06;100.00;99886.00;2042962;29;20670;-71
2022/05/10 01:39:32;;;;;;;20.00;17.98;;;;;;;9.01;100.00;99883.34;2043167;29;20233;-71
2022/05/10 01:40:36;;;;;;;20.25;18.65;;;;;;;8.98;100.00;99888.41;2042936;29;20681;-71
2022/05/10 01:41:45;;;;;;;20.30;18.42;;;;;;;8.95;100.00;99881.75;2042895;29;20608;-71
2022/05/10 01:42:48;;;;;;;20.10;18.48;;;;;;;8.94;100.00;99882.78;2041928;29;20207;-71
2022/05/10 01:43:58;;;;;;;20.65;18.73;;;;;;;8.92;100.00;99886.78;2042498;29;20203;-71
2022/05/10 01:45:04;;;;;;;20.52;18.83;;;;;;;8.91;100.00;99883.31;2034066;29;20697;-71
2022/05/10 01:46:12;;;;;;;20.52;18.65;;;;;;;8.87;100.00;99882.28;2035117;29;20235;-71
2022/05/10 01:47:16;;;;;;;19.70;17.90;;;;;;;8.88;100.00;99891.06;2042556;29;20180;-72
2022/05/10 01:48:19;;;;;;;19.05;17.40;;;;;;;8.87;100.00;99890.25;2042868;29;20279;-71
2022/05/10 01:49:28;;;;;;;19.85;17.88;;;;;;;8.94;100.00;99887.31;2042917;29;20191;-71
2022/05/10 01:50:35;;;;;;;19.63;17.77;;;;;;;8.97;100.00;99881.47;2043018;29;20641;-71
2022/05/10 01:51:47;;;;;;;19.95;18.15;;;;;;;8.94;100.00;99888.09;2042627;29;20231;-72
2022/05/10 01:52:51;;;;;;;19.63;18.02;;;;;;;8.91;100.00;99888.66;2033910;29;20203;-72
2022/05/10 01:53:56;;;;;;;19.63;17.90;;;;;;;8.88;100.00;99889.19;2033641;29;20203;-71
2022/05/10 01:55:06;;;;;;;19.75;17.95;;;;;;;8.86;100.00;99888.66;2034117;29;20562;-71
2022/05/10 01:56:11;;;;;;;20.00;18.20;;;;;;;8.87;100.00;99884.94;2041520;29;20207;-71
2022/05/10 01:57:15;;;;;;;20.25;18.35;;;;;;;8.90;100.00;99881.72;2034297;29;20319;-71
2022/05/10 01:58:21;;;;;;;19.73;18.02;;;;;;;8.90;100.00;99881.72;2034935;29;20200;-71
2022/05/10 01:59:23;;;;;;;20.00;18.20;;;;;;;8.90;100.00;99889.72;2042107;29;20222;-71
2022/05/10 02:00:28;;;;;;;20.13;18.38;;;;;;;8.85;100.00;99883.56;2042257;29;20191;-70
2022/05/10 02:01:33;;;;;;;20.60;18.90;;;;;;;8.82;100.00;99882.25;2043041;29;20626;-71
2022/05/10 02:02:36;;;;;;;20.55;18.65;;;;;;;8.84;100.00;99888.09;2042810;29;20195;-70
2022/05/10 02:03:42;;;;;;;19.83;18.23;;;;;;;8.83;100.00;99875.06;2034249;29;20670;-70
2022/05/10 02:04:45;;;;;;;20.88;19.15;;;;;;;8.83;100.00;99880.38;2027217;29;20208;-71
2022/05/10 02:05:57;;;;;;;20.48;18.52;;;;;;;8.77;100.00;99882.22;2035059;29;20184;-71
2022/05/10 02:07:00;;;;;;;20.00;18.27;;;;;;;8.74;100.00;99875.59;2042855;29;20203;-70
2022/05/10 02:08:07;;;;;;;20.10;18.33;;;;;;;8.71;100.00;99872.66;2033911;29;20199;-71
2022/05/10 02:09:16;;;;;;;20.40;18.52;;;;;;;8.70;100.00;99879.03;2035337;29;20643;-70
2022/05/10 02:10:22;;;;;;;21.65;17.85;;;;;;;8.70;100.00;99868.41;2042886;29;20701;-71
2022/05/10 02:11:24;;;;;;;18.63;17.05;;;;;;;8.70;100.00;99876.38;2042930;29;20183;-71
2022/05/10 02:12:28;;;;;;;18.92;16.90;;;;;;;8.68;100.00;99873.16;2042229;29;20218;-71
2022/05/10 02:13:35;;;;;;;19.23;17.35;;;;;;;8.66;100.00;99869.97;2042463;29;20274;-70
2022/05/10 02:14:39;;;;;;;18.67;16.92;;;;;;;8.64;100.00;99869.44;2042934;29;20175;-70
2022/05/10 02:15:47;;;;;;;19.83;17.17;;;;;;;8.62;100.00;99875.03;2043050;29;20191;-71
2022/05/10 02:16:51;;;;;;;18.77;17.27;;;;;;;8.58;100.00;99867.81;2042836;29;20266;-70
2022/05/10 02:17:56;;;;;;;18.65;16.92;;;;;;;8.57;100.00;99874.22;2034187;29;20208;-71
2022/05/10 02:19:04;;;;;;;19.50;17.70;;;;;;;8.55;100.00;99871.03;2034806;29;20191;-70
2022/05/10 02:20:10;;;;;;;25.27;18.05;;;;;;;8.52;100.00;99867.03;2042544;29;20254;-70
2022/05/10 02:21:16;;;;;;;20.48;18.38;;;;;;;8.50;100.00;99867.28;2042355;29;20243;-71
2022/05/10 02:22:24;;;;;;;19.65;17.58;;;;;;;8.46;100.00;99863.56;2042880;29;20207;-70
2022/05/10 02:23:29;;;;;;;19.50;17.90;;;;;;;8.44;100.00;99862.22;2042697;29;20627;-71
2022/05/10 02:24:34;;;;;;;19.48;17.67;;;;;;;8.41;100.00;99858.22;2034106;29;20200;-71
2022/05/10 02:25:39;;;;;;;20.13;18.23;;;;;;;8.38;100.00;99861.41;2034697;29;20191;-70
2022/05/10 02:26:45;;;;;;;20.23;18.40;;;;;;;8.37;100.00;99865.13;2042523;29;20191;-71
2022/05/10 02:27:48;;;;;;;19.65;17.75;;;;;;;8.36;100.00;99868.84;2033570;29;20242;-71
2022/05/10 02:28:53;;;;;;;22.23;18.77;;;;;;;8.33;100.00;99863.19;2034668;29;20188;-71
2022/05/10 02:30:01;;;;;;;20.65;18.55;;;;;;;8.31;100.00;99860.00;2042805;29;20627;-71
2022/05/10 02:31:08;;;;;;;19.35;17.38;;;;;;;8.28;100.00;99857.88;2042573;29;20688;-71
2022/05/10 02:33:32;;;;;;;20.10;17.90;;;;;;;8.18;100.00;99854.13;2034025;29;20246;-70
2022/05/10 02:34:37;;;;;;;20.80;18.73;;;;;;;8.16;100.00;99856.22;2026374;29;20220;-71
2022/05/10 02:35:46;;;;;;;20.08;18.15;;;;;;;8.13;100.00;99854.09;2026415;29;20200;-71
2022/05/10 02:36:47;;;;;;;20.05;18.30;;;;;;;8.13;100.00;99858.63;2025783;29;20277;-71
2022/05/10 02:37:49;;;;;;;20.90;19.10;;;;;;;8.10;100.00;99853.84;2026529;29;20228;-70
2022/05/10 02:38:49;;;;;;;20.30;18.60;;;;;;;8.07;100.00;99857.00;2026890;29;20200;-70
2022/05/10 02:39:52;;;;;;;20.97;18.77;;;;;;;8.10;100.00;99856.50;2026910;29;20295;-70
2022/05/10 02:40:55;;;;;;;20.67;18.55;;;;;;;8.09;100.00;99857.56;2026985;29;20197;-70
2022/05/10 02:41:58;;;;;;;21.65;19.45;;;;;;;8.10;100.00;99869.78;2026854;29;20189;-71
2022/05/10 02:43:00;;;;;;;23.08;18.90;;;;;;;8.06;100.00;99861.50;2027072;29;20204;-70
2022/05/10 02:44:02;;;;;;;20.63;18.48;;;;;;;8.06;100.00;99866.03;2026102;29;20766;-70
2022/05/10 02:45:07;;;;;;;22.70;19.17;;;;;;;8.03;100.00;99858.59;2033766;29;20638;-70
2022/05/10 02:46:09;;;;;;;22.10;20.08;;;;;;;8.01;100.00;99860.72;2041176;29;20560;-70
2022/05/10 02:47:13;;;;;;;23.33;21.02;;;;;;;7.98;100.00;99859.34;2026401;29;20204;-70
2022/05/10 02:48:17;;;;;;;20.90;19.20;;;;;;;7.95;100.00;99857.22;2026311;29;20350;-70
2022/05/10 02:49:18;;;;;;;22.50;20.45;;;;;;;7.94;100.00;99856.41;2033872;29;20211;-70
2022/05/10 02:50:24;;;;;;;21.43;19.30;;;;;;;7.94;100.00;99859.06;2034128;29;20180;-70
2022/05/10 02:51:26;;;;;;;20.77;18.45;;;;;;;7.90;100.00;99857.19;2033646;29;20223;-70
2022/05/10 02:52:28;;;;;;;20.73;18.40;;;;;;;7.90;100.00;99859.84;2033893;29;20671;-70
2022/05/10 02:53:29;;;;;;;20.05;18.05;;;;;;;7.87;100.00;99855.84;2025816;29;20212;-70
2022/05/10 02:54:32;;;;;;;19.73;17.93;;;;;;;7.86;100.00;99848.94;2017980;29;20735;-70
2022/05/10 02:55:37;;;;;;;21.98;19.15;;;;;;;7.86;100.00;99858.78;2018212;29;20208;-70
2022/05/10 02:56:40;;;;;;;21.17;19.17;;;;;;;7.81;100.00;99851.56;2026221;29;20189;-70
2022/05/10 02:57:41;;;;;;;21.25;18.70;;;;;;;7.80;100.00;99851.81;2026207;29;20252;-70
2022/05/10 02:58:46;;;;;;;21.17;19.13;;;;;;;7.77;100.00;99850.50;2026252;29;20193;-70
2022/05/10 02:59:47;;;;;;;22.80;20.27;;;;;;;7.78;100.00;99853.94;2026704;29;20208;-70
2022/05/10 03:00:51;;;;;;;20.03;18.33;;;;;;;7.77;100.00;99853.16;2026892;29;20648;-70
2022/05/10 03:01:54;;;;;;;20.90;18.83;;;;;;;7.77;100.00;99852.34;2026607;29;20256;-70
2022/05/10 03:03:01;;;;;;;20.83;18.83;;;;;;;7.75;100.00;99849.16;2026841;29;20221;-70
2022/05/10 03:04:02;;;;;;;21.55;19.48;;;;;;;7.71;100.00;99843.53;2026695;29;20177;-70
2022/05/10 03:05:08;;;;;;;21.95;19.98;;;;;;;7.70;100.00;99847.25;2026667;29;20188;-70
2022/05/10 03:06:09;;;;;;;21.58;19.40;;;;;;;7.71;100.00;99848.06;2026172;29;20173;-70
2022/05/10 03:07:11;;;;;;;22.10;19.93;;;;;;;7.69;100.00;99848.31;2026869;29;20696;-71
2022/05/10 03:08:13;;;;;;;21.73;19.50;;;;;;;7.69;100.00;99850.19;2026838;29;20203;-70
2022/05/10 03:09:18;;;;;;;21.33;19.05;;;;;;;7.68;100.00;99844.06;2025441;29;20291;-70
2022/05/10 03:10:19;;;;;;;21.40;19.15;;;;;;;7.66;100.00;99843.53;2026379;29;20671;-69
2022/05/10 03:11:22;;;;;;;20.25;18.50;;;;;;;7.67;100.00;99847.78;2034096;29;20211;-71
2022/05/10 03:12:24;;;;;;;20.02;18.23;;;;;;;7.67;100.00;99849.63;2025967;29;20593;-71
2022/05/10 03:13:27;;;;;;;20.40;18.27;;;;;;;7.67;100.00;99855.75;2018500;29;20196;-71
2022/05/10 03:14:29;;;;;;;21.17;18.90;;;;;;;7.65;100.00;99844.59;2018315;29;20201;-71
2022/05/10 03:15:31;;;;;;;22.00;18.90;;;;;;;7.66;100.00;99846.19;2026345;29;20216;-70
2022/05/10 03:16:34;;;;;;;21.48;19.30;;;;;;;7.65;100.00;99849.91;2026929;29;20674;-71
2022/05/10 03:17:36;;;;;;;20.58;18.50;;;;;;;7.65;100.00;99844.59;2025902;29;20224;-70
2022/05/10 03:18:37;;;;;;;20.75;18.60;;;;;;;7.64;100.00;99843.78;2017598;29;20215;-70
2022/05/10 03:19:39;;;;;;;21.85;18.80;;;;;;;7.65;100.00;99845.38;2025495;29;20211;-70
2022/05/10 03:20:40;;;;;;;21.33;19.27;;;;;;;7.64;100.00;99840.31;2033944;29;20202;-71
2022/05/10 03:21:42;;;;;;;22.40;19.10;;;;;;;7.62;100.00;99843.22;2026262;29;20311;-71
2022/05/10 03:22:43;;;;;;;21.50;19.38;;;;;;;7.62;100.00;99845.09;2026520;29;20196;-71
2022/05/10 03:23:45;;;;;;;20.60;18.63;;;;;;;7.60;100.00;99840.03;2026758;29;20196;-71
2022/05/10 03:24:45;;;;;;;23.05;18.92;;;;;;;7.59;100.00;99834.97;2026466;29;20197;-71
2022/05/10 03:25:48;;;;;;;20.90;18.70;;;;;;;7.58;100.00;99839.50;2026585;29;20691;-71
2022/05/10 03:26:52;;;;;;;20.58;18.80;;;;;;;7.59;100.00;99837.63;2025570;29;20260;-71
2022/05/10 03:27:54;;;;;;;22.92;19.40;;;;;;;7.58;100.00;99838.69;2025965;29;20215;-71
2022/05/10 03:28:55;;;;;;;20.25;18.27;;;;;;;7.57;100.00;99835.25;2026606;29;20196;-71
2022/05/10 03:29:58;;;;;;;20.55;18.65;;;;;;;7.56;100.00;99835.50;2026478;29;20197;-71
2022/05/10 03:31:00;;;;;;;20.92;18.88;;;;;;;7.58;100.00;99838.69;2025807;29;20219;-71
2022/05/10 03:32:03;;;;;;;20.77;18.73;;;;;;;7.59;100.00;99834.97;2026032;29;20199;-71
2022/05/10 03:33:05;;;;;;;20.38;18.50;;;;;;;7.57;100.00;99835.25;2038022;29;20569;-71
2022/05/10 03:35:29;;;;;;;20.67;18.67;;;;;;;7.57;100.00;99829.13;2041585;29;20226;-71
2022/05/10 03:36:31;;;;;;;20.13;18.30;;;;;;;7.57;100.00;99834.44;2040741;29;20807;-71
2022/05/10 03:37:32;;;;;;;20.55;18.75;;;;;;;7.56;100.00;99824.88;2033299;29;20215;-71
2022/05/10 03:38:35;;;;;;;20.77;18.97;;;;;;;7.50;100.00;99821.41;2033723;29;20220;-71
2022/05/10 03:39:36;;;;;;;21.05;19.33;;;;;;;7.55;100.00;99832.03;2034360;29;20558;-71
2022/05/10 03:40:40;;;;;;;21.88;19.52;;;;;;;7.56;100.00;99827.53;2034239;29;20219;-71
2022/05/10 03:41:41;;;;;;;24.35;19.50;;;;;;;7.55;100.00;99828.56;2034532;29;20242;-71
2022/05/10 03:42:49;;;;;;;20.75;18.85;;;;;;;7.54;100.00;99824.31;2034287;29;20199;-72
2022/05/10 03:43:51;;;;;;;21.35;19.05;;;;;;;7.56;100.00;99835.50;2034460;29;20627;-71
2022/05/10 03:44:53;;;;;;;20.65;18.55;;;;;;;7.56;100.00;99820.38;2034209;29;20246;-71
2022/05/10 03:45:54;;;;;;;19.27;17.50;;;;;;;7.55;100.00;99825.91;2034454;29;20235;-71
2022/05/10 03:46:55;;;;;;;20.10;17.95;;;;;;;7.54;100.00;99826.97;2034167;29;20196;-71
2022/05/10 03:47:59;;;;;;;19.77;17.97;;;;;;;7.53;100.00;99826.19;2034244;29;20226;-71
2022/05/10 03:49:00;;;;;;;19.48;17.70;;;;;;;7.52;100.00;99829.91;2034262;29;20542;-71
2022/05/10 03:50:02;;;;;;;19.70;18.03;;;;;;;7.54;100.00;99827.78;2034148;29;20312;-71
2022/05/10 03:51:04;;;;;;;19.35;17.65;;;;;;;7.56;100.00;99833.66;2032874;29;20211;-71
2022/05/10 03:52:06;;;;;;;21.08;18.38;;;;;;;7.57;100.00;99827.28;2033637;29;20587;-71
2022/05/10 03:53:08;;;;;;;20.48;18.52;;;;;;;7.60;100.00;99828.63;2034144;29;20220;-71
2022/05/10 03:54:10;;;;;;;20.60;18.80;;;;;;;7.58;100.00;99825.44;2034143;29;20655;-71
2022/05/10 03:55:14;;;;;;;20.67;18.77;;;;;;;7.56;100.00;99831.00;2033077;29;20211;-71
2022/05/10 03:56:15;;;;;;;21.10;19.15;;;;;;;7.56;100.00;99823.03;2033578;29;20605;-71
2022/05/10 03:57:19;;;;;;;21.23;19.43;;;;;;;7.56;100.00;99825.69;2034168;29;20278;-71
2022/05/10 03:58:19;;;;;;;21.48;19.10;;;;;;;7.57;100.00;99834.44;2034164;29;20287;-71
2022/05/10 03:59:22;;;;;;;20.50;18.70;;;;;;;7.58;100.00;99836.03;2034154;29;20210;-71
2022/05/10 04:00:26;;;;;;;20.40;18.48;;;;;;;7.56;100.00;99824.88;2033351;29;20573;-71
2022/05/10 04:01:27;;;;;;;21.23;18.77;;;;;;;7.56;100.00;99830.19;2025372;29;20244;-71
2022/05/10 04:02:29;;;;;;;20.60;18.73;;;;;;;7.58;100.00;99833.38;2025702;29;20252;-71
2022/05/10 04:03:31;;;;;;;20.55;18.63;;;;;;;7.55;100.00;99828.56;2025291;29;20219;-71
2022/05/10 04:04:34;;;;;;;20.67;18.63;;;;;;;7.46;100.00;99830.91;2033747;29;20263;-71
2022/05/10 04:05:35;;;;;;;21.90;18.42;;;;;;;7.45;100.00;99834.63;2034020;29;20246;-71
2022/05/10 04:06:36;;;;;;;20.90;18.80;;;;;;;7.45;100.00;99831.97;2033753;29;20227;-71
2022/05/10 04:07:39;;;;;;;21.67;19.20;;;;;;;7.38;100.00;99828.72;2033461;29;20203;-71
2022/05/10 04:08:45;;;;;;;20.42;18.38;;;;;;;7.39;100.00;99832.22;2033533;29;20608;-71
2022/05/10 04:09:48;;;;;;;20.70;18.52;;;;;;;7.41;100.00;99830.91;2034316;29;20545;-71
2022/05/10 04:10:49;;;;;;;21.20;18.20;;;;;;;7.41;100.00;99832.75;2040921;29;20254;-71
2022/05/10 04:11:51;;;;;;;19.75;17.98;;;;;;;7.45;100.00;99831.16;2041410;29;20191;-71
2022/05/10 04:12:52;;;;;;;20.65;18.77;;;;;;;7.50;100.00;99836.53;2033346;29;20214;-71
2022/05/10 04:13:53;;;;;;;20.90;18.60;;;;;;;7.55;100.00;99836.53;2033539;29;20227;-71
2022/05/10 04:14:56;;;;;;;22.33;18.52;;;;;;;7.59;100.00;99834.97;2033411;29;20546;-71
2022/05/10 04:15:57;;;;;;;19.83;17.80;;;;;;;7.61;100.00;99832.88;2033675;29;20271;-71
2022/05/10 04:16:59;;;;;;;20.35;18.45;;;;;;;7.59;100.00;99829.69;2034199;29;20199;-71
2022/05/10 04:18:00;;;;;;;20.35;18.38;;;;;;;7.57;100.00;99832.59;2033317;29;20675;-71
2022/05/10 04:19:04;;;;;;;19.27;17.33;;;;;;;7.57;100.00;99829.13;2026587;29;20737;-72
2022/05/10 04:20:07;;;;;;;19.50;17.10;;;;;;;7.59;100.00;99827.81;2035064;29;20199;-71
2022/05/10 04:21:09;;;;;;;18.75;17.05;;;;;;;7.63;100.00;99831.53;2034473;29;20200;-71
2022/05/10 04:22:10;;;;;;;18.50;16.70;;;;;;;7.65;100.00;99842.72;2035191;29;20191;-71
2022/05/10 04:23:14;;;;;;;18.88;17.10;;;;;;;7.64;100.00;99835.00;2042807;29;20230;-71
2022/05/10 04:24:15;;;;;;;19.20;17.02;;;;;;;7.67;100.00;99837.16;2042882;29;20222;-71
2022/05/10 04:25:21;;;;;;;19.27;17.47;;;;;;;7.75;100.00;99835.88;2035909;29;20188;-71
2022/05/10 04:26:22;;;;;;;18.95;17.23;;;;;;;7.72;100.00;99833.72;2035651;29;20694;-71
2022/05/10 04:27:24;;;;;;;19.70;17.80;;;;;;;7.74;100.00;99835.06;2035816;29;20546;-71
2022/05/10 04:28:24;;;;;;;24.67;19.38;;;;;;;7.78;100.00;99841.47;2035775;29;20199;-71
2022/05/10 04:29:26;;;;;;;21.83;18.83;;;;;;;7.81;100.00;99834.81;2035624;29;20302;-71
2022/05/10 04:30:27;;;;;;;20.10;17.83;;;;;;;7.83;100.00;99836.19;2035740;29;20553;-71
2022/05/10 04:31:31;;;;;;;20.63;18.20;;;;;;;7.89;100.00;99835.13;2035608;29;20219;-71
2022/05/10 04:32:36;;;;;;;20.05;18.00;;;;;;;7.98;100.00;99832.78;2035830;29;20227;-71
2022/05/10 04:33:40;;;;;;;21.35;19.20;;;;;;;8.05;100.00;99843.16;2043496;29;20681;-71
2022/05/10 04:34:43;;;;;;;20.30;18.30;;;;;;;8.09;100.00;99839.75;2042725;29;20277;-71
2022/05/10 04:35:43;;;;;;;20.70;18.77;;;;;;;8.06;100.00;99845.56;2042970;29;20201;-72
2022/05/10 04:36:47;;;;;;;21.07;18.30;;;;;;;8.11;100.00;99842.94;2043053;29;20254;-71
2022/05/10 04:37:48;;;;;;;20.02;18.02;;;;;;;8.11;100.00;99844.81;2043654;29;20226;-71
2022/05/10 04:38:50;;;;;;;25.53;18.83;;;;;;;8.13;100.00;99843.47;2042757;29;20195;-71
2022/05/10 04:41:27;;;;;;;20.65;18.17;;;;;;;8.20;100.00;99833.41;2043579;29;20179;-71
2022/05/10 04:42:29;;;;;;;20.92;18.80;;;;;;;8.25;100.00;99848.56;2042274;29;20207;-71
2022/05/10 04:43:30;;;;;;;24.38;17.85;;;;;;;8.27;100.00;99835.81;2042825;29;20199;-71
2022/05/10 04:44:33;;;;;;;22.33;18.80;;;;;;;8.31;100.00;99836.88;2043374;29;20195;-71
2022/05/10 04:45:35;;;;;;;20.52;17.98;;;;;;;8.36;100.00;99836.94;2043371;29;20274;-71
2022/05/10 04:46:39;;;;;;;20.58;18.58;;;;;;;8.38;100.00;99837.47;2043333;29;20195;-71
2022/05/10 04:47:41;;;;;;;22.00;19.70;;;;;;;8.66;100.00;99846.84;2043495;29;20202;-71
2022/05/10 04:48:42;;;;;;;20.35;18.38;;;;;;;8.74;100.00;99850.84;2043543;29;20195;-71
2022/05/10 04:49:44;;;;;;;19.75;17.92;;;;;;;8.78;100.00;99851.94;2043381;29;20195;-72
2022/05/10 04:50:48;;;;;;;20.50;17.92;;;;;;;8.78;100.00;99850.06;2043387;29;20202;-71
2022/05/10 04:51:49;;;;;;;19.60;17.70;;;;;;;8.81;100.00;99840.75;2042947;29;20230;-72
2022/05/10 04:52:51;;;;;;;18.65;16.98;;;;;;;8.82;100.00;99847.66;2043263;29;20558;-72
2022/05/10 04:53:54;;;;;;;18.90;17.38;;;;;;;8.79;100.00;99832.22;2043355;29;20618;-72
2022/05/10 04:54:56;;;;;;;19.75;17.77;;;;;;;8.82;100.00;99839.69;2043244;29;20210;-72
2022/05/10 04:55:58;;;;;;;20.42;18.42;;;;;;;8.82;100.00;99834.34;2043302;29;20195;-71
2022/05/10 04:57:01;;;;;;;26.33;19.13;;;;;;;8.84;100.00;99829.56;2043295;29;20282;-71
2022/05/10 04:58:02;;;;;;;20.58;18.55;;;;;;;8.89;100.00;99834.09;2042639;29;20226;-72
2022/05/10 04:59:04;;;;;;;20.50;18.67;;;;;;;8.92;100.00;99836.22;2042687;29;20197;-72
2022/05/10 05:00:08;;;;;;;23.25;19.83;;;;;;;8.99;100.00;99840.22;2042601;29;20255;-72